sensor_id;sensor_type;location;lat;lon;timestamp;P1;durP1;ratioP1;P2;durP2;ratioP2
51660;SDS011;37741;49.748;8.490;2024-01-06T00:02:24;5.97;;;1.85;;
51660;SDS011;37741;49.748;8.490;2024-01-06T00:04:50;3.40;;;1.52;;
51660;SDS011;37741;49.748;8.490;2024-01-06T00:07:16;4.97;;;2.50;;
51660;SDS011;37741;49.748;8.490;2024-01-06T00:09:42;3.60;;;1.88;;
51660;SDS011;37741;49.748;8.490;2024-01-06T00:12:07;4.30;;;2.03;;
51660;SDS011;37741;49.748;8.490;2024-01-06T00:14:33;4.13;;;2.00;;
51660;SDS011;37741;49.748;8.490;2024-01-06T00:16:59;4.65;;;1.98;;
51660;SDS011;37741;49.748;8.490;2024-01-06T00:19:24;3.42;;;1.73;;
51660;SDS011;37741;49.748;8.490;2024-01-06T00:21:50;3.65;;;2.08;;
51660;SDS011;37741;49.748;8.490;2024-01-06T00:24:16;4.63;;;2.10;;
51660;SDS011;37741;49.748;8.490;2024-01-06T00:26:41;5.25;;;2.13;;
51660;SDS011;37741;49.748;8.490;2024-01-06T00:29:07;4.72;;;1.95;;
51660;SDS011;37741;49.748;8.490;2024-01-06T00:31:32;4.35;;;2.10;;
51660;SDS011;37741;49.748;8.490;2024-01-06T00:33:58;4.82;;;2.10;;
51660;SDS011;37741;49.748;8.490;2024-01-06T00:36:24;7.45;;;2.63;;
51660;SDS011;37741;49.748;8.490;2024-01-06T00:38:49;4.32;;;1.73;;
51660;SDS011;37741;49.748;8.490;2024-01-06T00:41:15;5.38;;;2.28;;
51660;SDS011;37741;49.748;8.490;2024-01-06T00:43:40;4.50;;;2.10;;
51660;SDS011;37741;49.748;8.490;2024-01-06T00:46:06;4.22;;;2.30;;
51660;SDS011;37741;49.748;8.490;2024-01-06T00:48:32;6.90;;;2.72;;
51660;SDS011;37741;49.748;8.490;2024-01-06T00:50:58;4.50;;;1.75;;
51660;SDS011;37741;49.748;8.490;2024-01-06T00:53:23;4.10;;;1.90;;
51660;SDS011;37741;49.748;8.490;2024-01-06T00:55:49;4.18;;;1.80;;
51660;SDS011;37741;49.748;8.490;2024-01-06T00:58:15;3.90;;;2.15;;
51660;SDS011;37741;49.748;8.490;2024-01-06T01:00:40;4.35;;;2.08;;
51660;SDS011;37741;49.748;8.490;2024-01-06T01:03:06;5.72;;;2.08;;
51660;SDS011;37741;49.748;8.490;2024-01-06T01:05:32;4.15;;;2.00;;
51660;SDS011;37741;49.748;8.490;2024-01-06T01:07:57;4.03;;;2.10;;
51660;SDS011;37741;49.748;8.490;2024-01-06T01:10:23;3.78;;;2.13;;
51660;SDS011;37741;49.748;8.490;2024-01-06T01:12:48;3.58;;;1.77;;
51660;SDS011;37741;49.748;8.490;2024-01-06T01:15:14;3.25;;;1.75;;
51660;SDS011;37741;49.748;8.490;2024-01-06T01:17:40;3.75;;;1.80;;
51660;SDS011;37741;49.748;8.490;2024-01-06T01:20:06;5.32;;;2.05;;
51660;SDS011;37741;49.748;8.490;2024-01-06T01:22:32;3.78;;;1.95;;
51660;SDS011;37741;49.748;8.490;2024-01-06T01:24:57;3.25;;;1.83;;
51660;SDS011;37741;49.748;8.490;2024-01-06T01:27:23;4.25;;;1.98;;
51660;SDS011;37741;49.748;8.490;2024-01-06T01:29:48;4.20;;;2.20;;
51660;SDS011;37741;49.748;8.490;2024-01-06T01:32:17;3.33;;;1.85;;
51660;SDS011;37741;49.748;8.490;2024-01-06T01:34:43;4.03;;;1.67;;
51660;SDS011;37741;49.748;8.490;2024-01-06T01:37:09;4.43;;;1.80;;
51660;SDS011;37741;49.748;8.490;2024-01-06T01:39:34;5.22;;;2.00;;
51660;SDS011;37741;49.748;8.490;2024-01-06T01:42:00;4.43;;;1.73;;
51660;SDS011;37741;49.748;8.490;2024-01-06T01:44:26;4.15;;;1.88;;
51660;SDS011;37741;49.748;8.490;2024-01-06T01:46:52;5.90;;;2.25;;
51660;SDS011;37741;49.748;8.490;2024-01-06T01:49:17;3.40;;;2.08;;
51660;SDS011;37741;49.748;8.490;2024-01-06T01:51:43;4.43;;;1.85;;
51660;SDS011;37741;49.748;8.490;2024-01-06T01:54:09;4.10;;;2.40;;
51660;SDS011;37741;49.748;8.490;2024-01-06T01:56:35;3.83;;;1.83;;
51660;SDS011;37741;49.748;8.490;2024-01-06T01:59:11;3.80;;;1.90;;
51660;SDS011;37741;49.748;8.490;2024-01-06T02:01:38;5.30;;;1.90;;
51660;SDS011;37741;49.748;8.490;2024-01-06T02:04:04;3.28;;;1.83;;
51660;SDS011;37741;49.748;8.490;2024-01-06T02:06:30;3.70;;;1.80;;
51660;SDS011;37741;49.748;8.490;2024-01-06T02:08:55;5.57;;;2.63;;
51660;SDS011;37741;49.748;8.490;2024-01-06T02:11:21;3.60;;;2.13;;
51660;SDS011;37741;49.748;8.490;2024-01-06T02:13:47;8.93;;;2.53;;
51660;SDS011;37741;49.748;8.490;2024-01-06T02:16:13;4.07;;;1.70;;
51660;SDS011;37741;49.748;8.490;2024-01-06T02:18:39;4.03;;;1.77;;
51660;SDS011;37741;49.748;8.490;2024-01-06T02:21:04;4.20;;;1.80;;
51660;SDS011;37741;49.748;8.490;2024-01-06T02:23:33;4.00;;;1.48;;
51660;SDS011;37741;49.748;8.490;2024-01-06T02:26:01;3.83;;;1.45;;
51660;SDS011;37741;49.748;8.490;2024-01-06T02:28:26;3.15;;;1.52;;
51660;SDS011;37741;49.748;8.490;2024-01-06T02:30:52;4.70;;;2.10;;
51660;SDS011;37741;49.748;8.490;2024-01-06T02:33:18;4.53;;;2.08;;
51660;SDS011;37741;49.748;8.490;2024-01-06T02:35:45;3.42;;;2.00;;
51660;SDS011;37741;49.748;8.490;2024-01-06T02:38:11;5.25;;;1.80;;
51660;SDS011;37741;49.748;8.490;2024-01-06T02:40:36;3.75;;;1.77;;
51660;SDS011;37741;49.748;8.490;2024-01-06T02:43:02;4.80;;;1.70;;
51660;SDS011;37741;49.748;8.490;2024-01-06T02:45:28;4.72;;;1.60;;
51660;SDS011;37741;49.748;8.490;2024-01-06T02:47:53;4.63;;;1.73;;
51660;SDS011;37741;49.748;8.490;2024-01-06T02:50:19;4.00;;;2.15;;
51660;SDS011;37741;49.748;8.490;2024-01-06T02:52:45;4.28;;;1.73;;
51660;SDS011;37741;49.748;8.490;2024-01-06T02:55:11;3.60;;;1.63;;
51660;SDS011;37741;49.748;8.490;2024-01-06T02:57:37;4.50;;;1.88;;
51660;SDS011;37741;49.748;8.490;2024-01-06T03:00:03;4.38;;;1.70;;
51660;SDS011;37741;49.748;8.490;2024-01-06T03:02:29;4.53;;;1.70;;
51660;SDS011;37741;49.748;8.490;2024-01-06T03:04:55;5.60;;;1.83;;
51660;SDS011;37741;49.748;8.490;2024-01-06T03:07:21;3.60;;;1.50;;
51660;SDS011;37741;49.748;8.490;2024-01-06T03:09:47;3.58;;;1.42;;
51660;SDS011;37741;49.748;8.490;2024-01-06T03:12:12;2.88;;;1.50;;
51660;SDS011;37741;49.748;8.490;2024-01-06T03:14:38;4.53;;;1.45;;
51660;SDS011;37741;49.748;8.490;2024-01-06T03:17:04;3.97;;;1.65;;
51660;SDS011;37741;49.748;8.490;2024-01-06T03:19:32;3.00;;;1.63;;
51660;SDS011;37741;49.748;8.490;2024-01-06T03:21:58;3.22;;;1.67;;
51660;SDS011;37741;49.748;8.490;2024-01-06T03:24:24;2.88;;;1.58;;
51660;SDS011;37741;49.748;8.490;2024-01-06T03:26:50;3.17;;;1.35;;
51660;SDS011;37741;49.748;8.490;2024-01-06T03:29:16;5.72;;;2.08;;
51660;SDS011;37741;49.748;8.490;2024-01-06T03:31:42;5.18;;;2.00;;
51660;SDS011;37741;49.748;8.490;2024-01-06T03:34:09;3.15;;;1.75;;
51660;SDS011;37741;49.748;8.490;2024-01-06T03:36:36;3.75;;;1.85;;
51660;SDS011;37741;49.748;8.490;2024-01-06T03:39:05;3.28;;;1.52;;
51660;SDS011;37741;49.748;8.490;2024-01-06T03:41:31;4.43;;;1.70;;
51660;SDS011;37741;49.748;8.490;2024-01-06T03:43:57;4.47;;;1.50;;
51660;SDS011;37741;49.748;8.490;2024-01-06T03:46:23;2.65;;;1.35;;
51660;SDS011;37741;49.748;8.490;2024-01-06T03:48:48;3.83;;;1.48;;
51660;SDS011;37741;49.748;8.490;2024-01-06T03:51:14;4.18;;;1.90;;
51660;SDS011;37741;49.748;8.490;2024-01-06T03:53:40;4.82;;;1.83;;
51660;SDS011;37741;49.748;8.490;2024-01-06T03:56:05;4.78;;;1.92;;
51660;SDS011;37741;49.748;8.490;2024-01-06T03:58:31;5.22;;;1.52;;
51660;SDS011;37741;49.748;8.490;2024-01-06T04:00:57;4.72;;;1.52;;
51660;SDS011;37741;49.748;8.490;2024-01-06T04:03:23;4.55;;;1.63;;
51660;SDS011;37741;49.748;8.490;2024-01-06T04:05:49;4.07;;;1.45;;
51660;SDS011;37741;49.748;8.490;2024-01-06T04:08:15;4.88;;;1.83;;
51660;SDS011;37741;49.748;8.490;2024-01-06T04:10:40;3.00;;;1.35;;
51660;SDS011;37741;49.748;8.490;2024-01-06T04:13:07;4.40;;;1.85;;
51660;SDS011;37741;49.748;8.490;2024-01-06T04:15:35;3.55;;;1.65;;
51660;SDS011;37741;49.748;8.490;2024-01-06T04:18:03;2.83;;;1.75;;
51660;SDS011;37741;49.748;8.490;2024-01-06T04:20:32;3.58;;;1.85;;
51660;SDS011;37741;49.748;8.490;2024-01-06T04:22:58;4.15;;;1.60;;
51660;SDS011;37741;49.748;8.490;2024-01-06T04:25:24;4.07;;;1.45;;
51660;SDS011;37741;49.748;8.490;2024-01-06T04:27:50;4.18;;;1.92;;
51660;SDS011;37741;49.748;8.490;2024-01-06T04:30:15;3.97;;;1.80;;
51660;SDS011;37741;49.748;8.490;2024-01-06T04:32:44;3.92;;;1.65;;
51660;SDS011;37741;49.748;8.490;2024-01-06T04:35:09;4.05;;;1.73;;
51660;SDS011;37741;49.748;8.490;2024-01-06T04:37:35;3.47;;;1.42;;
51660;SDS011;37741;49.748;8.490;2024-01-06T04:40:01;3.35;;;1.67;;
51660;SDS011;37741;49.748;8.490;2024-01-06T04:42:27;5.13;;;1.63;;
51660;SDS011;37741;49.748;8.490;2024-01-06T04:44:53;3.50;;;1.67;;
51660;SDS011;37741;49.748;8.490;2024-01-06T04:47:18;2.72;;;1.50;;
51660;SDS011;37741;49.748;8.490;2024-01-06T04:49:44;4.35;;;1.75;;
51660;SDS011;37741;49.748;8.490;2024-01-06T04:52:10;3.60;;;1.58;;
51660;SDS011;37741;49.748;8.490;2024-01-06T04:54:36;3.72;;;1.50;;
51660;SDS011;37741;49.748;8.490;2024-01-06T04:57:02;5.40;;;1.67;;
51660;SDS011;37741;49.748;8.490;2024-01-06T04:59:29;4.70;;;1.55;;
51660;SDS011;37741;49.748;8.490;2024-01-06T05:01:55;3.35;;;1.40;;
51660;SDS011;37741;49.748;8.490;2024-01-06T05:04:22;3.08;;;1.48;;
51660;SDS011;37741;49.748;8.490;2024-01-06T05:06:48;2.72;;;1.40;;
51660;SDS011;37741;49.748;8.490;2024-01-06T05:09:14;4.57;;;1.90;;
51660;SDS011;37741;49.748;8.490;2024-01-06T05:11:40;2.70;;;1.35;;
51660;SDS011;37741;49.748;8.490;2024-01-06T05:14:08;2.35;;;1.25;;
51660;SDS011;37741;49.748;8.490;2024-01-06T05:16:34;2.97;;;1.38;;
51660;SDS011;37741;49.748;8.490;2024-01-06T05:18:59;3.08;;;1.42;;
51660;SDS011;37741;49.748;8.490;2024-01-06T05:21:25;4.75;;;1.95;;
51660;SDS011;37741;49.748;8.490;2024-01-06T05:23:51;3.65;;;1.33;;
51660;SDS011;37741;49.748;8.490;2024-01-06T05:26:16;2.90;;;1.73;;
51660;SDS011;37741;49.748;8.490;2024-01-06T05:28:42;2.33;;;1.30;;
51660;SDS011;37741;49.748;8.490;2024-01-06T05:31:08;3.13;;;1.27;;
51660;SDS011;37741;49.748;8.490;2024-01-06T05:33:33;3.33;;;1.40;;
51660;SDS011;37741;49.748;8.490;2024-01-06T05:35:59;3.30;;;1.33;;
51660;SDS011;37741;49.748;8.490;2024-01-06T05:38:25;2.17;;;1.10;;
51660;SDS011;37741;49.748;8.490;2024-01-06T05:40:50;3.25;;;1.33;;
51660;SDS011;37741;49.748;8.490;2024-01-06T05:43:16;2.72;;;1.23;;
51660;SDS011;37741;49.748;8.490;2024-01-06T05:45:41;2.58;;;1.25;;
51660;SDS011;37741;49.748;8.490;2024-01-06T05:48:11;2.67;;;1.40;;
51660;SDS011;37741;49.748;8.490;2024-01-06T05:50:40;3.30;;;1.23;;
51660;SDS011;37741;49.748;8.490;2024-01-06T05:53:06;2.75;;;1.25;;
51660;SDS011;37741;49.748;8.490;2024-01-06T05:55:32;4.13;;;1.63;;
51660;SDS011;37741;49.748;8.490;2024-01-06T05:57:58;2.95;;;1.35;;
51660;SDS011;37741;49.748;8.490;2024-01-06T06:00:24;3.83;;;1.15;;
51660;SDS011;37741;49.748;8.490;2024-01-06T06:02:50;3.55;;;1.60;;
51660;SDS011;37741;49.748;8.490;2024-01-06T06:05:15;3.15;;;1.30;;
51660;SDS011;37741;49.748;8.490;2024-01-06T06:07:41;4.47;;;1.80;;
51660;SDS011;37741;49.748;8.490;2024-01-06T06:10:08;3.33;;;1.90;;
51660;SDS011;37741;49.748;8.490;2024-01-06T06:12:34;2.45;;;1.30;;
51660;SDS011;37741;49.748;8.490;2024-01-06T06:15:00;5.40;;;1.42;;
51660;SDS011;37741;49.748;8.490;2024-01-06T06:17:28;4.40;;;1.40;;
51660;SDS011;37741;49.748;8.490;2024-01-06T06:19:54;3.85;;;1.60;;
51660;SDS011;37741;49.748;8.490;2024-01-06T06:22:20;4.88;;;1.88;;
51660;SDS011;37741;49.748;8.490;2024-01-06T06:24:47;3.40;;;1.55;;
51660;SDS011;37741;49.748;8.490;2024-01-06T06:27:12;4.00;;;1.38;;
51660;SDS011;37741;49.748;8.490;2024-01-06T06:29:38;3.08;;;1.10;;
51660;SDS011;37741;49.748;8.490;2024-01-06T06:32:03;3.85;;;1.30;;
51660;SDS011;37741;49.748;8.490;2024-01-06T06:34:29;4.07;;;1.63;;
51660;SDS011;37741;49.748;8.490;2024-01-06T06:36:55;3.20;;;1.20;;
51660;SDS011;37741;49.748;8.490;2024-01-06T06:39:20;4.70;;;2.03;;
51660;SDS011;37741;49.748;8.490;2024-01-06T06:41:46;2.95;;;1.70;;
51660;SDS011;37741;49.748;8.490;2024-01-06T06:44:11;3.75;;;1.40;;
51660;SDS011;37741;49.748;8.490;2024-01-06T06:46:37;3.30;;;1.38;;
51660;SDS011;37741;49.748;8.490;2024-01-06T06:49:03;4.38;;;1.52;;
51660;SDS011;37741;49.748;8.490;2024-01-06T06:51:28;3.78;;;1.73;;
51660;SDS011;37741;49.748;8.490;2024-01-06T06:53:55;3.88;;;1.60;;
51660;SDS011;37741;49.748;8.490;2024-01-06T06:56:21;3.20;;;1.23;;
51660;SDS011;37741;49.748;8.490;2024-01-06T06:58:47;3.42;;;1.40;;
51660;SDS011;37741;49.748;8.490;2024-01-06T07:01:14;4.53;;;1.48;;
51660;SDS011;37741;49.748;8.490;2024-01-06T07:03:40;3.45;;;1.85;;
51660;SDS011;37741;49.748;8.490;2024-01-06T07:06:06;4.05;;;1.80;;
51660;SDS011;37741;49.748;8.490;2024-01-06T07:08:32;3.25;;;1.55;;
51660;SDS011;37741;49.748;8.490;2024-01-06T07:10:57;4.88;;;1.98;;
51660;SDS011;37741;49.748;8.490;2024-01-06T07:13:23;3.67;;;1.80;;
51660;SDS011;37741;49.748;8.490;2024-01-06T07:15:49;4.82;;;1.80;;
51660;SDS011;37741;49.748;8.490;2024-01-06T07:18:15;2.85;;;1.67;;
51660;SDS011;37741;49.748;8.490;2024-01-06T07:20:40;3.88;;;1.70;;
51660;SDS011;37741;49.748;8.490;2024-01-06T07:23:06;3.70;;;1.73;;
51660;SDS011;37741;49.748;8.490;2024-01-06T07:25:32;3.58;;;1.70;;
51660;SDS011;37741;49.748;8.490;2024-01-06T07:27:57;3.35;;;1.80;;
51660;SDS011;37741;49.748;8.490;2024-01-06T07:30:23;3.70;;;2.05;;
51660;SDS011;37741;49.748;8.490;2024-01-06T07:32:49;5.10;;;1.75;;
51660;SDS011;37741;49.748;8.490;2024-01-06T07:35:16;4.75;;;2.05;;
51660;SDS011;37741;49.748;8.490;2024-01-06T07:37:42;3.92;;;1.90;;
51660;SDS011;37741;49.748;8.490;2024-01-06T07:40:08;3.15;;;1.98;;
51660;SDS011;37741;49.748;8.490;2024-01-06T07:42:34;3.90;;;1.90;;
51660;SDS011;37741;49.748;8.490;2024-01-06T07:45:00;3.25;;;1.63;;
51660;SDS011;37741;49.748;8.490;2024-01-06T07:47:27;4.05;;;2.00;;
51660;SDS011;37741;49.748;8.490;2024-01-06T07:49:52;3.97;;;1.88;;
51660;SDS011;37741;49.748;8.490;2024-01-06T07:52:18;3.83;;;1.80;;
51660;SDS011;37741;49.748;8.490;2024-01-06T07:54:43;4.95;;;2.22;;
51660;SDS011;37741;49.748;8.490;2024-01-06T07:57:09;2.92;;;1.52;;
51660;SDS011;37741;49.748;8.490;2024-01-06T07:59:36;4.03;;;1.70;;
51660;SDS011;37741;49.748;8.490;2024-01-06T08:02:01;3.40;;;1.77;;
51660;SDS011;37741;49.748;8.490;2024-01-06T08:04:27;4.93;;;1.92;;
51660;SDS011;37741;49.748;8.490;2024-01-06T08:06:53;4.55;;;2.00;;
51660;SDS011;37741;49.748;8.490;2024-01-06T08:09:19;5.18;;;2.20;;
51660;SDS011;37741;49.748;8.490;2024-01-06T08:11:45;3.40;;;1.95;;
51660;SDS011;37741;49.748;8.490;2024-01-06T08:14:13;5.43;;;2.85;;
51660;SDS011;37741;49.748;8.490;2024-01-06T08:16:38;3.72;;;1.98;;
51660;SDS011;37741;49.748;8.490;2024-01-06T08:19:04;4.10;;;1.90;;
51660;SDS011;37741;49.748;8.490;2024-01-06T08:21:29;4.70;;;2.08;;
51660;SDS011;37741;49.748;8.490;2024-01-06T08:23:56;3.60;;;1.55;;
51660;SDS011;37741;49.748;8.490;2024-01-06T08:26:21;4.00;;;2.00;;
51660;SDS011;37741;49.748;8.490;2024-01-06T08:28:47;5.07;;;1.88;;
51660;SDS011;37741;49.748;8.490;2024-01-06T08:31:13;6.60;;;2.00;;
51660;SDS011;37741;49.748;8.490;2024-01-06T08:33:38;5.40;;;1.90;;
51660;SDS011;37741;49.748;8.490;2024-01-06T08:36:04;4.43;;;2.33;;
51660;SDS011;37741;49.748;8.490;2024-01-06T08:38:31;4.13;;;2.58;;
51660;SDS011;37741;49.748;8.490;2024-01-06T08:40:57;4.35;;;2.17;;
51660;SDS011;37741;49.748;8.490;2024-01-06T08:43:22;2.92;;;1.75;;
51660;SDS011;37741;49.748;8.490;2024-01-06T08:45:48;3.25;;;2.00;;
51660;SDS011;37741;49.748;8.490;2024-01-06T08:48:13;3.42;;;2.00;;
51660;SDS011;37741;49.748;8.490;2024-01-06T08:50:40;3.03;;;1.73;;
51660;SDS011;37741;49.748;8.490;2024-01-06T08:53:05;3.63;;;1.90;;
51660;SDS011;37741;49.748;8.490;2024-01-06T08:55:31;3.53;;;2.15;;
51660;SDS011;37741;49.748;8.490;2024-01-06T08:57:56;5.65;;;2.03;;
51660;SDS011;37741;49.748;8.490;2024-01-06T09:00:22;4.47;;;2.30;;
51660;SDS011;37741;49.748;8.490;2024-01-06T09:02:48;5.18;;;2.30;;
51660;SDS011;37741;49.748;8.490;2024-01-06T09:05:14;4.35;;;1.65;;
51660;SDS011;37741;49.748;8.490;2024-01-06T09:07:39;4.72;;;2.08;;
51660;SDS011;37741;49.748;8.490;2024-01-06T09:10:05;3.03;;;1.77;;
51660;SDS011;37741;49.748;8.490;2024-01-06T09:12:32;2.75;;;1.70;;
51660;SDS011;37741;49.748;8.490;2024-01-06T09:14:57;6.75;;;2.70;;
51660;SDS011;37741;49.748;8.490;2024-01-06T09:17:23;6.20;;;2.15;;
51660;SDS011;37741;49.748;8.490;2024-01-06T09:19:48;3.63;;;2.20;;
51660;SDS011;37741;49.748;8.490;2024-01-06T09:22:14;4.30;;;1.90;;
51660;SDS011;37741;49.748;8.490;2024-01-06T09:24:40;4.10;;;2.15;;
51660;SDS011;37741;49.748;8.490;2024-01-06T09:27:05;2.85;;;1.67;;
51660;SDS011;37741;49.748;8.490;2024-01-06T09:29:31;3.67;;;1.88;;
51660;SDS011;37741;49.748;8.490;2024-01-06T09:31:56;3.90;;;1.80;;
51660;SDS011;37741;49.748;8.490;2024-01-06T09:34:22;3.53;;;1.95;;
51660;SDS011;37741;49.748;8.490;2024-01-06T09:36:47;3.00;;;1.40;;
51660;SDS011;37741;49.748;8.490;2024-01-06T09:39:13;4.57;;;1.77;;
51660;SDS011;37741;49.748;8.490;2024-01-06T09:41:38;3.85;;;2.28;;
51660;SDS011;37741;49.748;8.490;2024-01-06T09:44:04;3.58;;;2.05;;
51660;SDS011;37741;49.748;8.490;2024-01-06T09:46:30;5.05;;;2.20;;
51660;SDS011;37741;49.748;8.490;2024-01-06T09:48:57;3.58;;;1.95;;
51660;SDS011;37741;49.748;8.490;2024-01-06T09:51:23;4.32;;;2.00;;
51660;SDS011;37741;49.748;8.490;2024-01-06T09:54:00;4.07;;;1.77;;
51660;SDS011;37741;49.748;8.490;2024-01-06T09:56:29;4.85;;;2.00;;
51660;SDS011;37741;49.748;8.490;2024-01-06T09:58:55;4.00;;;2.00;;
51660;SDS011;37741;49.748;8.490;2024-01-06T10:01:21;3.38;;;2.08;;
51660;SDS011;37741;49.748;8.490;2024-01-06T10:03:47;4.57;;;2.03;;
51660;SDS011;37741;49.748;8.490;2024-01-06T10:06:13;4.95;;;2.13;;
51660;SDS011;37741;49.748;8.490;2024-01-06T10:08:41;3.00;;;1.70;;
51660;SDS011;37741;49.748;8.490;2024-01-06T10:11:08;3.17;;;1.67;;
51660;SDS011;37741;49.748;8.490;2024-01-06T10:13:35;5.35;;;2.85;;
51660;SDS011;37741;49.748;8.490;2024-01-06T10:16:03;4.07;;;2.22;;
51660;SDS011;37741;49.748;8.490;2024-01-06T10:18:31;3.42;;;2.03;;
51660;SDS011;37741;49.748;8.490;2024-01-06T10:20:57;3.20;;;1.90;;
51660;SDS011;37741;49.748;8.490;2024-01-06T10:23:23;4.55;;;1.90;;
51660;SDS011;37741;49.748;8.490;2024-01-06T10:25:52;3.55;;;2.08;;
51660;SDS011;37741;49.748;8.490;2024-01-06T10:28:18;3.97;;;2.10;;
51660;SDS011;37741;49.748;8.490;2024-01-06T10:30:45;3.65;;;1.92;;
51660;SDS011;37741;49.748;8.490;2024-01-06T10:33:11;4.38;;;2.38;;
51660;SDS011;37741;49.748;8.490;2024-01-06T10:35:38;4.50;;;2.13;;
51660;SDS011;37741;49.748;8.490;2024-01-06T10:38:04;3.67;;;1.95;;
51660;SDS011;37741;49.748;8.490;2024-01-06T10:40:31;3.38;;;2.10;;
51660;SDS011;37741;49.748;8.490;2024-01-06T10:42:57;4.07;;;2.05;;
51660;SDS011;37741;49.748;8.490;2024-01-06T10:45:23;4.13;;;2.17;;
51660;SDS011;37741;49.748;8.490;2024-01-06T10:47:49;5.32;;;2.20;;
51660;SDS011;37741;49.748;8.490;2024-01-06T10:50:18;4.50;;;2.55;;
51660;SDS011;37741;49.748;8.490;2024-01-06T10:52:46;4.68;;;2.47;;
51660;SDS011;37741;49.748;8.490;2024-01-06T10:55:13;2.70;;;1.58;;
51660;SDS011;37741;49.748;8.490;2024-01-06T10:57:45;3.28;;;1.88;;
51660;SDS011;37741;49.748;8.490;2024-01-06T11:00:12;3.92;;;2.47;;
51660;SDS011;37741;49.748;8.490;2024-01-06T11:02:38;3.42;;;2.15;;
51660;SDS011;37741;49.748;8.490;2024-01-06T11:05:05;3.40;;;2.05;;
51660;SDS011;37741;49.748;8.490;2024-01-06T11:07:35;3.92;;;1.75;;
51660;SDS011;37741;49.748;8.490;2024-01-06T11:10:06;3.72;;;2.25;;
51660;SDS011;37741;49.748;8.490;2024-01-06T11:12:41;4.88;;;2.17;;
51660;SDS011;37741;49.748;8.490;2024-01-06T11:15:08;4.88;;;2.20;;
51660;SDS011;37741;49.748;8.490;2024-01-06T11:17:53;3.47;;;1.98;;
51660;SDS011;37741;49.748;8.490;2024-01-06T11:20:20;4.65;;;2.25;;
51660;SDS011;37741;49.748;8.490;2024-01-06T11:22:47;4.57;;;2.72;;
51660;SDS011;37741;49.748;8.490;2024-01-06T11:25:14;3.05;;;2.08;;
51660;SDS011;37741;49.748;8.490;2024-01-06T11:27:42;3.50;;;2.30;;
51660;SDS011;37741;49.748;8.490;2024-01-06T11:30:11;5.18;;;2.30;;
51660;SDS011;37741;49.748;8.490;2024-01-06T11:32:53;4.03;;;2.17;;
51660;SDS011;37741;49.748;8.490;2024-01-06T11:35:20;7.80;;;2.50;;
51660;SDS011;37741;49.748;8.490;2024-01-06T11:42:46;5.78;;;2.55;;
51660;SDS011;37741;49.748;8.490;2024-01-06T11:45:13;4.28;;;2.35;;
51660;SDS011;37741;49.748;8.490;2024-01-06T11:47:40;5.90;;;2.60;;
51660;SDS011;37741;49.748;8.490;2024-01-06T11:50:13;3.20;;;2.05;;
51660;SDS011;37741;49.748;8.490;2024-01-06T11:52:39;4.47;;;2.55;;
51660;SDS011;37741;49.748;8.490;2024-01-06T11:55:05;7.18;;;3.20;;
51660;SDS011;37741;49.748;8.490;2024-01-06T11:57:33;4.93;;;2.60;;
51660;SDS011;37741;49.748;8.490;2024-01-06T11:59:59;4.25;;;2.45;;
51660;SDS011;37741;49.748;8.490;2024-01-06T12:02:25;5.78;;;2.38;;
51660;SDS011;37741;49.748;8.490;2024-01-06T12:04:51;4.80;;;3.00;;
51660;SDS011;37741;49.748;8.490;2024-01-06T12:07:18;4.82;;;2.85;;
51660;SDS011;37741;49.748;8.490;2024-01-06T12:09:48;4.40;;;3.08;;
51660;SDS011;37741;49.748;8.490;2024-01-06T12:12:16;4.28;;;2.75;;
51660;SDS011;37741;49.748;8.490;2024-01-06T12:14:42;5.50;;;3.22;;
51660;SDS011;37741;49.748;8.490;2024-01-06T12:17:08;4.53;;;2.80;;
51660;SDS011;37741;49.748;8.490;2024-01-06T12:19:34;6.15;;;3.60;;
51660;SDS011;37741;49.748;8.490;2024-01-06T12:22:00;4.82;;;2.75;;
51660;SDS011;37741;49.748;8.490;2024-01-06T12:24:27;5.65;;;3.33;;
51660;SDS011;37741;49.748;8.490;2024-01-06T12:26:54;4.70;;;2.88;;
51660;SDS011;37741;49.748;8.490;2024-01-06T12:29:22;5.93;;;3.72;;
51660;SDS011;37741;49.748;8.490;2024-01-06T12:31:47;5.10;;;2.65;;
51660;SDS011;37741;49.748;8.490;2024-01-06T12:34:13;5.40;;;3.28;;
51660;SDS011;37741;49.748;8.490;2024-01-06T12:36:39;4.45;;;3.15;;
51660;SDS011;37741;49.748;8.490;2024-01-06T12:39:09;5.13;;;4.03;;
51660;SDS011;37741;49.748;8.490;2024-01-06T12:41:42;6.10;;;3.30;;
51660;SDS011;37741;49.748;8.490;2024-01-06T12:44:09;4.95;;;3.20;;
51660;SDS011;37741;49.748;8.490;2024-01-06T12:46:34;5.50;;;3.47;;
51660;SDS011;37741;49.748;8.490;2024-01-06T12:49:00;5.28;;;3.50;;
51660;SDS011;37741;49.748;8.490;2024-01-06T12:51:26;5.75;;;3.63;;
51660;SDS011;37741;49.748;8.490;2024-01-06T12:53:51;5.15;;;3.70;;
51660;SDS011;37741;49.748;8.490;2024-01-06T12:56:17;5.90;;;4.20;;
51660;SDS011;37741;49.748;8.490;2024-01-06T12:58:43;5.53;;;3.97;;
51660;SDS011;37741;49.748;8.490;2024-01-06T13:01:09;6.05;;;3.85;;
51660;SDS011;37741;49.748;8.490;2024-01-06T13:03:35;5.75;;;3.60;;
51660;SDS011;37741;49.748;8.490;2024-01-06T13:06:01;5.15;;;3.80;;
51660;SDS011;37741;49.748;8.490;2024-01-06T13:08:27;7.00;;;3.50;;
51660;SDS011;37741;49.748;8.490;2024-01-06T13:10:53;4.63;;;3.28;;
51660;SDS011;37741;49.748;8.490;2024-01-06T13:13:21;6.05;;;3.92;;
51660;SDS011;37741;49.748;8.490;2024-01-06T13:15:47;4.68;;;3.30;;
51660;SDS011;37741;49.748;8.490;2024-01-06T13:18:13;5.15;;;3.47;;
51660;SDS011;37741;49.748;8.490;2024-01-06T13:20:38;5.20;;;3.58;;
51660;SDS011;37741;49.748;8.490;2024-01-06T13:23:06;5.18;;;3.72;;
51660;SDS011;37741;49.748;8.490;2024-01-06T13:25:32;5.50;;;3.75;;
51660;SDS011;37741;49.748;8.490;2024-01-06T13:27:58;4.65;;;3.45;;
51660;SDS011;37741;49.748;8.490;2024-01-06T13:30:24;6.97;;;4.22;;
51660;SDS011;37741;49.748;8.490;2024-01-06T13:32:50;5.47;;;3.50;;
51660;SDS011;37741;49.748;8.490;2024-01-06T13:35:22;5.30;;;3.45;;
51660;SDS011;37741;49.748;8.490;2024-01-06T13:37:51;6.10;;;4.03;;
51660;SDS011;37741;49.748;8.490;2024-01-06T13:40:17;5.60;;;3.40;;
51660;SDS011;37741;49.748;8.490;2024-01-06T13:42:51;6.28;;;3.80;;
51660;SDS011;37741;49.748;8.490;2024-01-06T13:45:17;4.78;;;3.67;;
51660;SDS011;37741;49.748;8.490;2024-01-06T13:47:43;5.55;;;4.00;;
51660;SDS011;37741;49.748;8.490;2024-01-06T13:50:13;4.57;;;3.35;;
51660;SDS011;37741;49.748;8.490;2024-01-06T13:52:40;5.90;;;3.75;;
51660;SDS011;37741;49.748;8.490;2024-01-06T13:55:06;5.15;;;3.70;;
51660;SDS011;37741;49.748;8.490;2024-01-06T13:57:33;6.35;;;4.03;;
51660;SDS011;37741;49.748;8.490;2024-01-06T13:59:59;6.20;;;3.60;;
51660;SDS011;37741;49.748;8.490;2024-01-06T14:02:25;6.57;;;4.25;;
51660;SDS011;37741;49.748;8.490;2024-01-06T14:04:51;4.72;;;3.10;;
51660;SDS011;37741;49.748;8.490;2024-01-06T14:07:19;6.85;;;4.03;;
51660;SDS011;37741;49.748;8.490;2024-01-06T14:09:47;4.80;;;3.30;;
51660;SDS011;37741;49.748;8.490;2024-01-06T14:12:12;5.57;;;3.75;;
51660;SDS011;37741;49.748;8.490;2024-01-06T14:14:38;4.25;;;3.40;;
51660;SDS011;37741;49.748;8.490;2024-01-06T14:17:04;6.68;;;4.10;;
51660;SDS011;37741;49.748;8.490;2024-01-06T14:19:30;5.05;;;3.90;;
51660;SDS011;37741;49.748;8.490;2024-01-06T14:21:56;4.80;;;3.30;;
51660;SDS011;37741;49.748;8.490;2024-01-06T14:24:21;5.13;;;3.42;;
51660;SDS011;37741;49.748;8.490;2024-01-06T14:26:50;5.30;;;3.33;;
51660;SDS011;37741;49.748;8.490;2024-01-06T14:29:18;4.03;;;3.10;;
51660;SDS011;37741;49.748;8.490;2024-01-06T14:31:44;5.10;;;3.30;;
51660;SDS011;37741;49.748;8.490;2024-01-06T14:34:10;5.53;;;3.85;;
51660;SDS011;37741;49.748;8.490;2024-01-06T14:36:36;5.35;;;3.67;;
51660;SDS011;37741;49.748;8.490;2024-01-06T14:39:01;5.85;;;3.97;;
51660;SDS011;37741;49.748;8.490;2024-01-06T14:41:29;5.78;;;3.55;;
51660;SDS011;37741;49.748;8.490;2024-01-06T14:43:54;3.80;;;3.03;;
51660;SDS011;37741;49.748;8.490;2024-01-06T14:46:20;8.13;;;3.80;;
51660;SDS011;37741;49.748;8.490;2024-01-06T14:48:46;5.15;;;3.00;;